首页
METAR-TAF:

METAR-TAF

机场 :

Edenton, 北卡罗来纳州, 美国

纬度: 36-01-40N, 经度: 076-34-02W, 海拔: 6米

当前天气观测

该预报发布于19分钟前的09:35 UTC
风速8节,风向
温度 7°C
湿度 100%
气压 1024 hPa
能見度: 8.0公里
散云层高于600英尺
多云层高于2100英尺
阴天层高于3100英尺
大雨

METAR: KEDE 150935Z AUTO 01008KT 5SM +RA SCT006 BKN021 OVC031 07/07 A3025 RMK AO2 P0006 T00720067

时间: 04:54 (09:54 UTC)


TAF: 丢失

超过4000个机场的气象观测和天气预报(METAR&TAF报告)。

可查询的气象台以黄色和红色小点在地图上表示。

将鼠标移到小点上方,可查看气象台名称。

然后点击查看天气观测和预报。

如需切换地图:点击带黑十字的绿色按钮放大地图;点击带横线的绿色按钮缩小地图;或者点击绿色箭头查看邻近地区的地图。


METAR-TAF: